ADDS METAR Data INFO
IDs: Format: Raw Decoded Include TAF

Data at: 0623 UTC 15 Dec 2017

KL35 150615Z AUTO 07005KT 10SM CLR M01/M20 A3035 RMK AO2
KL35 150555Z AUTO 07005KT 10SM CLR M01/M20 A3035 RMK AO2
KL35 150535Z AUTO 09003KT 10SM CLR M01/M21 A3034 RMK AO2
KL35 150515Z AUTO 00000KT 10SM CLR 00/M20 A3034 RMK AO2
KL35 150455Z AUTO 06004KT 10SM CLR 00/M20 A3033 RMK AO2
KL35 150435Z AUTO 08005KT 10SM CLR 00/M20 A3033 RMK AO2
KL35 150415Z AUTO 07005KT 10SM CLR 00/M20 A3033 RMK AO2
KL35 150355Z AUTO 07004KT 10SM CLR 00/M21 A3033 RMK AO2
KL35 150335Z AUTO 08003KT 10SM CLR 00/M21 A3032 RMK AO2
KL35 150315Z AUTO 00000KT 10SM CLR 01/M21 A3031 RMK AO2
KL35 150255Z AUTO 09003KT 10SM CLR 02/M21 A3031 RMK AO2
KL35 150235Z AUTO 07004KT 10SM CLR 03/M21 A3031 RMK AO2
KL35 150215Z AUTO 10005KT 10SM CLR 05/M20 A3031 RMK AO2
KL35 150155Z AUTO 09006KT 10SM CLR 05/M20 A3031 RMK AO2
KL35 150135Z AUTO 10008KT 10SM CLR 05/M19 A3029 RMK AO2
KL35 150115Z AUTO 09008KT 10SM CLR 05/M17 A3029 RMK AO2
KL35 150055Z AUTO 08009KT 10SM CLR 05/M17 A3029 RMK AO2
KL35 150035Z AUTO 07014G19KT 10SM CLR 07/M21 A3028 RMK AO2
KL35 150015Z AUTO 05014G26KT 10SM CLR 08/M26 A3027 RMK AO2
KL35 142355Z AUTO 04012G21KT 10SM CLR 08/M19 A3026 RMK AO2
KL35 142335Z AUTO 06017G23KT 10SM CLR 08/M22 A3026 RMK AO2
KL35 142315Z AUTO 06019G24KT 10SM CLR 09/M22 A3025 RMK AO2
KL35 142255Z AUTO 05019G24KT 10SM CLR 10/M21 A3025 RMK AO2
KL35 142235Z AUTO 06018G24KT 10SM CLR 10/M21 A3025 RMK AO2
KL35 142215Z AUTO 05015G21KT 10SM CLR 10/M22 A3025 RMK AO2
KL35 142155Z AUTO 05015G21KT 10SM CLR 10/M20 A3026 RMK AO2
KL35 142135Z AUTO 04014G25KT 10SM CLR 10/M19 A3026 RMK AO2
KL35 142115Z AUTO 05014G22KT 014V074 10SM CLR 08/M15 A3026 RMK AO2
KL35 142055Z AUTO 06015G19KT 10SM CLR 08/M14 A3026 RMK AO2
KL35 142035Z AUTO 06016G23KT 10SM CLR 08/M14 A3027 RMK AO2
KL35 142015Z AUTO 05014G23KT 10SM CLR 09/M15 A3026 RMK AO2
KL35 141955Z AUTO 07013G21KT 10SM CLR 09/M14 A3027 RMK AO2
KL35 141935Z AUTO 05012G22KT 10SM CLR 09/M13 A3027 RMK AO2
KL35 141915Z AUTO 03013G18KT 004V064 10SM CLR 10/M14 A3027 RMK AO2
KL35 141855Z AUTO 04012G23KT 004V074 10SM CLR 10/M15 A3027 RMK AO2
KL35 141835Z AUTO 05014G18KT 10SM CLR 10/M14 A3027 RMK AO2
KL35 141815Z AUTO 08016G21KT 10SM CLR 09/M13 A3028 RMK AO2
KL35 141755Z AUTO 06018G24KT 10SM CLR 10/M14 A3027 RMK AO2
KL35 141735Z AUTO 02013G19KT 10SM CLR 07/M12 A3028 RMK AO2
KL35 141715Z AUTO 03018G25KT 10SM CLR 07/M12 A3028 RMK AO2
KL35 141655Z AUTO 02015G24KT 10SM CLR 07/M12 A3027 RMK AO2
KL35 141635Z AUTO 02014G24KT 10SM CLR 07/M12 A3026 RMK AO2
KL35 141615Z AUTO 02014G23KT 10SM CLR 06/M12 A3026 RMK AO2
KL35 141555Z AUTO 02011G24KT 344V054 10SM CLR 06/M12 A3026 RMK AO2
KL35 141535Z AUTO 02015G22KT 10SM CLR 06/M13 A3025 RMK AO2
KL35 141515Z AUTO 36011G19KT 10SM CLR 05/M15 A3024 RMK AO2
KL35 141455Z AUTO 35008G17KT 10SM CLR 06/M15 A3024 RMK AO2
KL35 141435Z AUTO 03011G18KT 10SM CLR 06/M20 A3024 RMK AO2
KL35 141415Z AUTO 01013G19KT 10SM CLR 06/M20 A3023 RMK AO2
KL35 141355Z AUTO 01009G17KT 10SM CLR 06/M20 A3023 RMK AO2
KL35 141335Z AUTO 01008G18KT 10SM CLR 06/M20 A3022 RMK AO2
KL35 141315Z AUTO 01008G19KT 344V044 10SM CLR 07/M20 A3020 RMK AO2
KL35 141255Z AUTO 36014G25KT 344V044 10SM CLR 07/M22 A3019 RMK AO2
KL35 141235Z AUTO 01012G18KT 10SM CLR 07/M25 A3018 RMK AO2
KL35 141215Z AUTO 01009G16KT 10SM CLR 07/M25 A3017 RMK AO2
KL35 141155Z AUTO 02010G17KT 10SM CLR 07/M26 A3017 RMK AO2
KL35 141135Z AUTO 02008G18KT 344V044 10SM CLR 08/M26 A3017 RMK AO2
KL35 141115Z AUTO 02011G18KT 10SM CLR 08/M26 A3017 RMK AO2
KL35 141055Z AUTO 02009G18KT 004V064 10SM CLR 09/M28 A3018 RMK AO2
KL35 141035Z AUTO 02014G18KT 10SM CLR 08/M27 A3017 RMK AO2
KL35 141015Z AUTO 01006KT 10SM CLR 08/M28 A3018 RMK AO2
KL35 140955Z AUTO 02008KT 10SM CLR M02/M23 A3018 RMK AO2
KL35 140935Z AUTO 00000KT 10SM CLR M06/M25 A3018 RMK AO2
KL35 140915Z AUTO 00000KT 10SM CLR M06/M25 A3018 RMK AO2
KL35 140855Z AUTO 00000KT 10SM CLR M06/M23 A3018 RMK AO2
KL35 140835Z AUTO 00000KT 10SM CLR M06/M25 A3018 RMK AO2
KL35 140815Z AUTO 00000KT 10SM CLR M06/M25 A3019 RMK AO2
KL35 140755Z AUTO 00000KT 7SM CLR M05/M25 A3019 RMK AO2
KL35 140735Z AUTO 00000KT 10SM CLR M05/M25 A3020 RMK AO2
KL35 140715Z AUTO 00000KT 10SM CLR M05/M25 A3020 RMK AO2
KL35 140655Z AUTO 00000KT 10SM CLR M05/M25 A3020 RMK AO2
KL35 140635Z AUTO 00000KT 10SM CLR M05/M23 A3021 RMK AO2
KL35 140615Z AUTO 00000KT 10SM CLR M05/M23 A3020 RMK AO2
KL35 140555Z AUTO 00000KT 10SM CLR M04/M26 A3020 RMK AO2
KL35 140535Z AUTO 00000KT 10SM CLR M04/M25 A3020 RMK AO2
KL35 140515Z AUTO 00000KT 10SM CLR M03/M24 A3019 RMK AO2
KL35 140455Z AUTO 00000KT 10SM CLR M03/M23 A3020 RMK AO2
KL35 140435Z AUTO 00000KT 10SM CLR M03/M22 A3019 RMK AO2
KL35 140415Z AUTO 00000KT 10SM CLR M03/M22 A3018 RMK AO2
KL35 140355Z AUTO 00000KT 10SM CLR M03/M21 A3018 RMK AO2
KL35 140335Z AUTO 00000KT 10SM CLR M02/M21 A3018 RMK AO2
KL35 140315Z AUTO 00000KT 10SM CLR M02/M21 A3019 RMK AO2
KL35 140255Z AUTO 00000KT 10SM CLR M01/M21 A3018 RMK AO2
KL35 140235Z AUTO 00000KT 10SM CLR 00/M21 A3018 RMK AO2
KL35 140215Z AUTO 00000KT 10SM CLR 00/M21 A3019 RMK AO2
KL35 140155Z AUTO 00000KT 10SM CLR 01/M21 A3019 RMK AO2
KL35 140135Z AUTO 00000KT 10SM CLR 02/M21 A3019 RMK AO2
KL35 140115Z AUTO 00000KT 10SM CLR 03/M20 A3018 RMK AO2
KL35 140055Z AUTO 00000KT 10SM CLR 06/M20 A3019 RMK AO2
KL35 140035Z AUTO 00000KT 10SM CLR 07/M18 A3018 RMK AO2
KL35 140015Z AUTO 00000KT 10SM CLR 09/M18 A3017 RMK AO2
KL35 132355Z AUTO 00000KT 10SM CLR 13/M20 A3018 RMK AO2
KL35 132335Z AUTO 09004KT 10SM CLR 13/M20 A3018 RMK AO2
KL35 132315Z AUTO 12003KT 10SM CLR 14/M19 A3018 RMK AO2
KL35 132255Z AUTO 08006KT 10SM CLR 14/M20 A3019 RMK AO2
KL35 132235Z AUTO 10005KT 10SM CLR 14/M19 A3019 RMK AO2
KL35 132215Z AUTO 08007KT 10SM CLR 14/M20 A3019 RMK AO2
KL35 132155Z AUTO 08006KT 10SM CLR 15/M20 A3019 RMK AO2
KL35 132135Z AUTO 06007KT 10SM CLR 14/M20 A3019 RMK AO2
KL35 132115Z AUTO 08008KT 10SM CLR 15/M21 A3020 RMK AO2
KL35 132055Z AUTO 07006KT 10SM CLR 14/M21 A3020 RMK AO2
KL35 132035Z AUTO 06003KT 10SM CLR 14/M21 A3021 RMK AO2
KL35 132015Z AUTO 08009KT 10SM CLR 15/M21 A3022 RMK AO2
KL35 131955Z AUTO 08007KT 10SM CLR 15/M21 A3022 RMK AO2
KL35 131935Z AUTO 08006KT 10SM CLR 14/M22 A3022 RMK AO2
KL35 131915Z AUTO 09005KT 10SM CLR 14/M20 A3023 RMK AO2
KL35 131855Z AUTO 12006KT 10SM CLR 13/M20 A3024 RMK AO2
KL35 131835Z AUTO 07006KT 10SM CLR 13/M19 A3025 RMK AO2